Snettisham Power House AK US NWS current weather conditions

sailwx.info

Wind from 020 at 3 knots gusting 3

Air temperature -0.9° C

Last reported at 2020-Jan-22 12:30 UTC.
Time now 2020-Jan-22 14:11 UTC

Location: N 58°09' W 133°44'.
View on Google Maps.

See reports from other nearby stations

  
Tides and Currents Weather Stations Pressure Air Temp Water Temp Dewpoint Dewpoint Depression Visibility Wind Speed Wind Dir Waves Ship Positions
date/time (UTC)wind fromknots sea level pressurealtimeterstation pressurevisibilityair tempwater tempwave heightnotes
2020-Jan-22 12:30 020 3 gusting 3 -0.9
2020-Jan-22 12:15 009 1 gusting 2 -0.9
2020-Jan-22 12:00 039 2 gusting 3 -0.9
2020-Jan-22 11:45 022 2 gusting 2 -0.9
2020-Jan-22 11:30 054 2 gusting 3 -0.9
2020-Jan-22 11:15 -1.0
2020-Jan-22 11:00 -0.9
2020-Jan-22 10:45 038 1 gusting 3 -1.0
2020-Jan-22 10:30 -1.0
2020-Jan-22 10:15 044 2 gusting 3 -1.0
2020-Jan-22 10:00 -1.0
2020-Jan-22 09:45 354 -1.0
2020-Jan-22 09:30 028 2 gusting 3 -1.0
2020-Jan-22 09:15 036 2 gusting 3 -1.0
2020-Jan-22 09:00 014 1 gusting 2 -1.0
2020-Jan-22 08:45 -1.0
2020-Jan-22 08:30 -1.1
2020-Jan-22 08:15 011 2 gusting 3 -1.1
2020-Jan-22 08:00 009 2 gusting 4 -1.1
2020-Jan-22 07:45 017 2 gusting 3 -1.1
2020-Jan-22 07:30 046 1 gusting 2 -1.1
2020-Jan-22 07:15 102 1 gusting 3 -1.1
2020-Jan-22 07:00 334 0 gusting 2 -1.1
2020-Jan-22 06:45 007 1 gusting 2 -1.1
2020-Jan-22 06:30 042 1 gusting 2 -1.1
2020-Jan-22 06:15 095 0 gusting 1 -1.1
2020-Jan-22 06:00 048 0 gusting 1 -1.1
2020-Jan-22 05:45 088 1 gusting 3 -1.2
2020-Jan-22 05:30 128 0 gusting 2 -1.2
2020-Jan-22 05:15 151 0 gusting 2 -1.1
2020-Jan-22 05:00 -1.1
2020-Jan-22 04:45 083 1 gusting 2 -1.1
2020-Jan-22 04:30 098 1 gusting 1 -1.2
2020-Jan-22 04:15 093 1 gusting 2 -1.2
2020-Jan-22 04:00 082 -1.2
2020-Jan-22 03:45 141 1 gusting 2 -1.1
2020-Jan-22 03:30 -1.1
2020-Jan-22 03:15 307 -1.2
2020-Jan-22 03:00 001 1 gusting 4 -1.1
2020-Jan-22 02:45 042 3 gusting 4 -1.1
2020-Jan-22 02:30 028 1 gusting 3 -1.1
2020-Jan-22 02:15 031 3 gusting 3 -1.1
2020-Jan-22 02:00 062 1 gusting 2 -1.1
2020-Jan-22 01:30 -1.1
2020-Jan-22 01:15 078 3 gusting 3 -1.1
2020-Jan-22 01:00 083 2 gusting 3 -1.1
2020-Jan-22 00:45 034 1 gusting 3 -0.9
2020-Jan-22 00:30 049 2 gusting 3 -0.9
2020-Jan-22 00:15 045 2 gusting 4 -0.8
2020-Jan-22 00:00 355 1 gusting 4 -0.6
2020-Jan-21 23:45 007 1 gusting 3 -0.5
2020-Jan-21 23:30 047 -0.6
2020-Jan-21 23:15 010 5 gusting 7 -0.7
2020-Jan-21 23:00 316 2 gusting 3 -0.6
2020-Jan-21 22:45 095 0 gusting 3 -0.4
2020-Jan-21 22:30 103 2 gusting 6 -0.5
2020-Jan-21 22:15 102 1 gusting 3 -0.5
2020-Jan-21 22:00 139 3 gusting 8 -0.4
2020-Jan-21 21:45 101 2 gusting 5 -0.8
2020-Jan-21 21:30 099 2 gusting 5 -0.4
2020-Jan-21 21:15 097 2 gusting 4 -0.8
2020-Jan-21 21:00 -1.0
2020-Jan-21 20:45 109 4 gusting 6 -0.9
2020-Jan-21 20:30 -1.1
2020-Jan-21 20:15 065 5 gusting 9 -1.1
2020-Jan-21 20:00 -1.3
2020-Jan-21 19:45 084 1 gusting 5 -1.4
2020-Jan-21 19:30 054 2 gusting 6 -1.3
2020-Jan-21 19:15 190 2 gusting 6 -1.5
2020-Jan-21 19:00 -1.5
2020-Jan-21 18:45 076 1 gusting 6 -1.5
2020-Jan-21 18:30 188 -1.6
2020-Jan-21 18:15 110 3 gusting 12 -1.9
2020-Jan-21 18:00 033 4 gusting 12 -1.9
2020-Jan-21 17:45 027 1 gusting 6 -1.8
2020-Jan-21 17:30 355 5 gusting 6 -1.8
2020-Jan-21 17:15 026 3 gusting 5 -1.6
2020-Jan-21 17:00 124 4 gusting 5 -1.6
2020-Jan-21 16:45 076 -1.6
2020-Jan-21 16:30 -1.5
2020-Jan-21 16:15 065 8 gusting 10 -1.5
2020-Jan-21 16:00 043 7 gusting 16 -1.9
2020-Jan-21 15:45 062 12 gusting 15 -2.0
2020-Jan-21 15:30 -2.0
2020-Jan-21 15:15 -2.0
2020-Jan-21 15:00 323 2 gusting 6 -2.0
2020-Jan-21 14:45 297 2 gusting 6 -2.3
2020-Jan-21 14:30 354 4 gusting 6 -2.3
2020-Jan-21 14:15 322 3 gusting 7 -2.3
2020-Jan-21 14:00 129 2 gusting 7 -2.3
2020-Jan-21 13:45 328 4 gusting 5 -2.4
2020-Jan-21 13:30 035 3 gusting 10 -2.5
2020-Jan-21 13:15 027 5 gusting 10 -2.5
2020-Jan-21 13:00 042 6 gusting 10 -2.8
2020-Jan-21 12:45 -3.2
2020-Jan-21 12:30 124 1 gusting 4 -3.5
2020-Jan-21 12:15 081 1 gusting 3 -3.2
2020-Jan-21 12:00 075 2 gusting 3 -3.2
2020-Jan-21 11:45 086 0 gusting 5 -3.2
2020-Jan-21 11:30 195 3 gusting 6 -3.5
2020-Jan-21 11:15 100 6 gusting 6 -3.4
2020-Jan-21 11:00 107 2 gusting 6 -3.0
2020-Jan-21 10:45 -3.2
2020-Jan-21 10:30 069 1 gusting 5 -3.3
2020-Jan-21 10:15 077 0 gusting 2 -3.3
2020-Jan-21 10:00 058 1 gusting 5 -3.1
2020-Jan-21 09:45 -3.0
2020-Jan-21 09:30 050 -2.9
2020-Jan-21 09:15 -3.0
2020-Jan-21 09:00 133 3 gusting 3 -2.7
2020-Jan-21 08:45 041 1 gusting 5 -2.5
2020-Jan-21 08:30 036 1 gusting 4 -2.4
2020-Jan-21 08:15 107 0 gusting 5 -2.3
2020-Jan-21 08:00 089 4 gusting 4 -2.1
2020-Jan-21 07:45 012 2 gusting 4 -2.1
2020-Jan-21 07:30 076 1 gusting 3 -2.1
2020-Jan-21 07:15 013 1 gusting 3 -1.9
2020-Jan-21 07:00 020 0 gusting 3 -1.9
2020-Jan-21 06:45 003 1 gusting 3 -2.0
2020-Jan-21 06:30 077 1 gusting 4 -1.9
2020-Jan-21 06:15 040 2 gusting 3 -2.0
2020-Jan-21 06:00 049 1 gusting 2 -1.9
2020-Jan-21 05:45 060 1 gusting 8 -1.9
2020-Jan-21 05:30 016 7 gusting 7 -1.9
2020-Jan-21 05:15 095 0 gusting 4 -2.0
2020-Jan-21 05:00 -2.0
2020-Jan-21 04:45 050 3 gusting 6 -2.1
2020-Jan-21 04:30 -2.2
2020-Jan-21 04:15 032 1 gusting 3 -2.1
2020-Jan-21 04:00 050 0 gusting 3 -2.1
2020-Jan-21 03:45 -2.1
2020-Jan-21 03:30 016 0 gusting 2 -2.1
2020-Jan-21 03:15 072 1 gusting 4 -2.1
2020-Jan-21 03:00 333 1 gusting 2 -2.1
2020-Jan-21 02:45 104 1 gusting 3 -2.1
2020-Jan-21 02:30 106 -2.1
2020-Jan-21 02:15 009 2 gusting 3 -2.1
2020-Jan-21 02:00 114 1 gusting 3 -2.1
2020-Jan-21 01:30 111 -2.1
2020-Jan-21 01:15 103 -1.9
2020-Jan-21 01:00 340 0 gusting 3 -2.0
2020-Jan-21 00:45 013 2 gusting 4 -1.9
2020-Jan-21 00:30 025 2 gusting 5 -1.9
2020-Jan-21 00:15 -2.0
2020-Jan-21 00:00 355 3 gusting 6 -2.1
2020-Jan-20 23:45 036 1 gusting 7 -2.2
2020-Jan-20 23:30 018 3 gusting 6 -2.4
2020-Jan-20 23:15 074 0 gusting 2 -2.4
2020-Jan-20 23:00 072 1 gusting 2 -2.4
2020-Jan-20 22:45 183 0 gusting 2 -2.4
2020-Jan-20 22:30 040 1 gusting 4 -2.5
2020-Jan-20 22:15 055 0 gusting 6 -2.6
2020-Jan-20 22:00 020 -2.7
2020-Jan-20 21:45 025 6 gusting 8 -2.7
2020-Jan-20 21:30 -2.8
2020-Jan-20 21:15 033 3 gusting 7 -2.8
2020-Jan-20 21:00 050 0 gusting 5 -2.7
2020-Jan-20 20:45 025 3 gusting 6 -2.7
2020-Jan-20 20:30 -2.9
2020-Jan-20 20:15 050 6 gusting 6 -3.0
2020-Jan-20 20:00 044 3 gusting 7 -3.0
2020-Jan-20 19:45 047 3 gusting 5 -3.0
2020-Jan-20 19:30 -3.2
2020-Jan-20 19:15 044 4 gusting 5 -3.3
2020-Jan-20 19:00 -3.3
2020-Jan-20 18:45 020 0 gusting 3 -3.5
2020-Jan-20 18:30 -3.6
2020-Jan-20 18:15 057 3 gusting 5 -3.7
2020-Jan-20 18:00 046 2 gusting 6 -3.7
2020-Jan-20 17:45 035 3 gusting 6 -3.7
2020-Jan-20 17:30 033 5 gusting 9 -3.8
2020-Jan-20 17:15 030 8 gusting 8 -3.8
2020-Jan-20 17:00 -3.9
2020-Jan-20 16:45 254 1 gusting 6 -3.8
2020-Jan-20 16:30 017 -3.8
2020-Jan-20 16:15 354 2 gusting 6 -3.8
2020-Jan-20 16:00 343 2 gusting 6 -3.7
2020-Jan-20 15:45 083 3 gusting 10 -3.7
2020-Jan-20 15:30 039 6 gusting 10 -3.8
2020-Jan-20 15:15 015 6 gusting 12 -3.8
2020-Jan-20 15:00 105 2 gusting 9 -4.0
2020-Jan-20 14:45 043 8 gusting 11 -4.0
2020-Jan-20 14:30 056 8 gusting 10 -4.1
2020-Jan-20 14:15 092 6 gusting 8 -4.1
2020-Jan-20 14:00 113 3 gusting 6 -4.0